Time;durP1;ratioP1;P1;durP2;ratioP2;P2;SDS_P1;SDS_P2;PMS_P1;PMS_P2;Temp;Humidity;BMP_temperature;BMP_pressure;BME280_temperature;BME280_humidity;BME280_pressure;Samples;Min_cycle;Max_cycle;Signal;HPM_P1;HPM_P2
2023/01/27 00:04:42;;;;;;;7.47;4.45;;;;;;;;;;10405408;28;20036;-45
2023/01/27 00:09:43;;;;;;;7.28;4.05;;;;;;;;;;10413046;28;20036;-47
2023/01/27 00:14:43;;;;;;;5.95;4.30;;;;;;;;;;10411819;28;20033;-46
2023/01/27 00:19:44;;;;;;;5.40;3.83;;;;;;;;;;10411533;28;20040;-46
2023/01/27 00:24:45;;;;;;;8.38;4.15;;;;;;;;;;10411914;28;20061;-46
2023/01/27 00:29:46;;;;;;;6.43;4.40;;;;;;;;;;10412880;28;20033;-46
2023/01/27 00:34:46;;;;;;;6.90;4.40;;;;;;;;;;10412071;28;20068;-46
2023/01/27 00:39:47;;;;;;;6.78;3.90;;;;;;;;;;10393869;28;20026;-46
2023/01/27 00:50:07;;;;;;;9.45;4.50;;;;;;;;;;10411862;28;20021;-46
2023/01/27 00:55:11;;;;;;;9.38;4.00;;;;;;;;;;10411193;28;20481;-47
2023/01/27 01:00:14;;;;;;;11.50;3.72;;;;;;;;;;10406206;28;20042;-46
2023/01/27 01:05:14;;;;;;;7.93;3.80;;;;;;;;;;10410535;28;20025;-51
2023/01/27 01:10:15;;;;;;;7.18;4.15;;;;;;;;;;10410570;28;20438;-45
2023/01/27 01:15:16;;;;;;;8.45;4.15;;;;;;;;;;10410039;28;20114;-46
2023/01/27 01:20:16;;;;;;;11.02;3.60;;;;;;;;;;10409486;28;20111;-46
2023/01/27 01:25:17;;;;;;;4.88;3.50;;;;;;;;;;10409079;28;20041;-46
2023/01/27 01:30:18;;;;;;;6.63;3.83;;;;;;;;;;10410354;28;20377;-46
2023/01/27 01:35:19;;;;;;;12.38;4.20;;;;;;;;;;10409464;28;20292;-45
2023/01/27 01:40:21;;;;;;;6.60;3.70;;;;;;;;;;10409225;28;20060;-45
2023/01/27 01:45:32;;;;;;;7.28;4.20;;;;;;;;;;10409092;28;20025;-45
2023/01/27 01:50:35;;;;;;;7.38;3.63;;;;;;;;;;10409371;28;20113;-47
2023/01/27 01:55:38;;;;;;;4.97;3.50;;;;;;;;;;10390391;28;20033;-45
2023/01/27 02:00:39;;;;;;;4.15;3.38;;;;;;;;;;10404920;28;20057;-45
2023/01/27 02:05:43;;;;;;;4.50;3.50;;;;;;;;;;10408594;28;20496;-45
2023/01/27 02:10:44;;;;;;;6.50;4.00;;;;;;;;;;10391014;28;20037;-46
2023/01/27 02:15:45;;;;;;;5.90;3.47;;;;;;;;;;10390515;28;20034;-46
2023/01/27 02:20:52;;;;;;;5.82;3.70;;;;;;;;;;10407108;28;20477;-46
2023/01/27 02:26:17;;;;;;;4.72;3.38;;;;;;;;;;10406871;28;20034;-48
2023/01/27 02:31:18;;;;;;;4.75;3.30;;;;;;;;;;10397472;28;20421;-48
2023/01/27 02:36:18;;;;;;;4.82;3.83;;;;;;;;;;10392915;28;20046;-46
2023/01/27 02:41:40;;;;;;;5.20;3.47;;;;;;;;;;10408188;28;20029;-47
2023/01/27 02:46:40;;;;;;;6.00;3.80;;;;;;;;;;10379806;28;20036;-47
2023/01/27 02:51:41;;;;;;;4.75;3.72;;;;;;;;;;10406058;28;20025;-47
2023/01/27 02:56:41;;;;;;;3.83;3.20;;;;;;;;;;10406803;28;20072;-46
2023/01/27 03:01:42;;;;;;;5.13;3.80;;;;;;;;;;10402637;28;20492;-46
2023/01/27 03:06:42;;;;;;;3.70;3.00;;;;;;;;;;10406961;28;20477;-48
2023/01/27 03:22:22;;;;;;;5.25;3.50;;;;;;;;;;10406791;28;20116;-46
2023/01/27 03:27:22;;;;;;;5.00;3.40;;;;;;;;;;10405471;28;20021;-46
2023/01/27 03:32:26;;;;;;;4.70;3.40;;;;;;;;;;10406385;28;20026;-46
2023/01/27 03:48:05;;;;;;;;;;;;;;;;;;10388004;28;20029;-45
2023/01/27 03:53:06;;;;;;;4.00;3.23;;;;;;;;;;10383794;28;19912;-46
2023/01/27 03:58:28;;;;;;;4.70;3.15;;;;;;;;;;10399154;28;20459;-46
2023/01/27 04:08:54;;;;;;;3.83;3.20;;;;;;;;;;10385781;28;20038;-47
2023/01/27 04:13:54;;;;;;;5.00;3.20;;;;;;;;;;10384845;28;20076;-46
2023/01/27 04:18:56;;;;;;;4.35;3.08;;;;;;;;;;10409601;28;20369;-46
2023/01/27 04:23:57;;;;;;;4.15;2.85;;;;;;;;;;10387538;28;20072;-47
2023/01/27 04:29:01;;;;;;;3.47;2.72;;;;;;;;;;10406237;28;20072;-47
2023/01/27 04:34:01;;;;;;;5.93;3.17;;;;;;;;;;10408584;28;20021;-45
2023/01/27 04:39:02;;;;;;;4.03;2.70;;;;;;;;;;10374323;28;20046;-46
2023/01/27 04:44:04;;;;;;;5.40;3.15;;;;;;;;;;10370299;28;20034;-46
2023/01/27 04:49:06;;;;;;;2.88;2.67;;;;;;;;;;10369768;28;20030;-46
2023/01/27 04:54:06;;;;;;;3.50;3.13;;;;;;;;;;10369456;28;20035;-46
2023/01/27 04:59:12;;;;;;;3.22;2.92;;;;;;;;;;10370843;28;20025;-46
2023/01/27 05:04:12;;;;;;;4.35;3.38;;;;;;;;;;10369322;28;20496;-46
2023/01/27 05:09:13;;;;;;;5.72;3.10;;;;;;;;;;10369040;28;20026;-49
2023/01/27 05:14:13;;;;;;;4.47;3.53;;;;;;;;;;10369603;28;20034;-46
2023/01/27 05:19:14;;;;;;;3.60;2.83;;;;;;;;;;10369157;28;20026;-47
2023/01/27 05:24:15;;;;;;;8.23;3.20;;;;;;;;;;10357305;28;20265;-46
2023/01/27 05:29:15;;;;;;;3.42;2.90;;;;;;;;;;10368315;28;20037;-46
2023/01/27 05:34:16;;;;;;;3.67;3.03;;;;;;;;;;10368650;28;20033;-57
2023/01/27 05:39:17;;;;;;;3.90;3.15;;;;;;;;;;10406617;28;20091;-46
2023/01/27 05:44:18;;;;;;;3.75;3.10;;;;;;;;;;10409370;28;20033;-46
2023/01/27 05:49:18;;;;;;;5.57;3.10;;;;;;;;;;10408676;28;20248;-45
2023/01/27 05:54:19;;;;;;;4.07;2.83;;;;;;;;;;10408650;28;20033;-47
2023/01/27 05:59:19;;;;;;;3.33;2.72;;;;;;;;;;10404652;28;20092;-45
2023/01/27 06:04:20;;;;;;;3.30;2.78;;;;;;;;;;10406060;28;20477;-46
2023/01/27 06:09:21;;;;;;;4.85;3.08;;;;;;;;;;10406664;28;20021;-46
2023/01/27 06:14:22;;;;;;;2.95;2.60;;;;;;;;;;10405819;28;20036;-49
2023/01/27 06:19:22;;;;;;;3.70;3.10;;;;;;;;;;10404796;28;20021;-55
2023/01/27 06:24:23;;;;;;;3.35;2.90;;;;;;;;;;10406179;28;20026;-46
2023/01/27 06:29:24;;;;;;;6.40;3.17;;;;;;;;;;10405924;28;20064;-48
2023/01/27 06:34:24;;;;;;;4.72;3.50;;;;;;;;;;10405045;28;20036;-50
2023/01/27 06:39:25;;;;;;;4.50;3.00;;;;;;;;;;10406088;28;20574;-49
2023/01/27 06:44:25;;;;;;;4.60;3.58;;;;;;;;;;10406352;28;20424;-52
2023/01/27 06:49:46;;;;;;;7.72;3.40;;;;;;;;;;10405740;28;20381;-48
2023/01/27 06:54:47;;;;;;;6.55;3.65;;;;;;;;;;10242786;28;20039;-49
2023/01/27 06:59:47;;;;;;;6.78;3.58;;;;;;;;;;10232895;28;20096;-49
2023/01/27 07:04:48;;;;;;;6.43;3.88;;;;;;;;;;10241899;28;20584;-47
2023/01/27 07:09:48;;;;;;;19.83;4.30;;;;;;;;;;10238861;28;20426;-49
2023/01/27 07:14:49;;;;;;;9.27;3.33;;;;;;;;;;10221112;28;20435;-50
2023/01/27 07:19:49;;;;;;;13.18;3.63;;;;;;;;;;10226788;28;20040;-51
2023/01/27 07:24:50;;;;;;;8.65;4.07;;;;;;;;;;10221873;28;20051;-52
2023/01/27 07:29:51;;;;;;;15.02;3.88;;;;;;;;;;10281485;28;20041;-53
2023/01/27 07:34:51;;;;;;;11.30;4.22;;;;;;;;;;10420060;28;20053;-51
2023/01/27 07:39:52;;;;;;;6.32;3.85;;;;;;;;;;10420155;28;20017;-51
2023/01/27 07:44:52;;;;;;;7.47;4.10;;;;;;;;;;10419787;28;20014;-54
2023/01/27 07:49:54;;;;;;;8.38;3.80;;;;;;;;;;10419867;28;20050;-58
2023/01/27 07:54:55;;;;;;;4.90;3.83;;;;;;;;;;10420177;28;20041;-57
2023/01/27 07:59:55;;;;;;;7.13;4.32;;;;;;;;;;10419785;28;20030;-51
2023/01/27 08:04:56;;;;;;;6.38;4.00;;;;;;;;;;10419071;28;20037;-55
2023/01/27 08:09:56;;;;;;;5.97;3.88;;;;;;;;;;10418456;28;20592;-49
2023/01/27 08:14:57;;;;;;;8.48;4.05;;;;;;;;;;10418851;28;20373;-51
2023/01/27 08:19:57;;;;;;;7.78;3.92;;;;;;;;;;10418654;28;20476;-52
2023/01/27 08:24:58;;;;;;;7.18;3.80;;;;;;;;;;10417597;28;20464;-53
2023/01/27 08:29:59;;;;;;;8.38;3.67;;;;;;;;;;10411782;28;20038;-50
2023/01/27 08:34:59;;;;;;;8.00;4.10;;;;;;;;;;10411695;28;20411;-51
2023/01/27 08:40:00;;;;;;;6.28;4.22;;;;;;;;;;10395884;28;20494;-51
2023/01/27 08:45:00;;;;;;;5.65;3.97;;;;;;;;;;10407412;28;20057;-49
2023/01/27 08:50:01;;;;;;;4.80;3.40;;;;;;;;;;10395513;28;20099;-51
2023/01/27 08:55:01;;;;;;;6.95;4.10;;;;;;;;;;10395833;28;20041;-52
2023/01/27 09:00:05;;;;;;;8.15;3.83;;;;;;;;;;10392985;28;20034;-49
2023/01/27 09:05:06;;;;;;;7.45;3.88;;;;;;;;;;10379437;28;20060;-53
2023/01/27 09:10:07;;;;;;;5.18;3.72;;;;;;;;;;10406733;28;20107;-49
2023/01/27 09:15:09;;;;;;;6.47;3.70;;;;;;;;;;10380899;28;20018;-51
2023/01/27 09:20:10;;;;;;;5.57;3.38;;;;;;;;;;10405377;28;20033;-51
2023/01/27 09:25:15;;;;;;;8.68;4.00;;;;;;;;;;10393164;28;20463;-52
2023/01/27 09:30:16;;;;;;;4.50;3.45;;;;;;;;;;10373907;28;20048;-52
2023/01/27 09:35:16;;;;;;;6.15;4.03;;;;;;;;;;10398740;28;20052;-50
2023/01/27 09:40:37;;;;;;;7.13;4.63;;;;;;;;;;10390636;28;20037;-51
2023/01/27 09:46:23;;;;;;;7.10;3.60;;;;;;;;;;10392098;28;20037;-47
2023/01/27 09:51:40;;;;;;;4.22;3.67;;;;;;;;;;10409587;28;20121;-50
2023/01/27 09:57:03;;;;;;;6.20;4.10;;;;;;;;;;10397434;28;20064;-51
2023/01/27 10:02:22;;;;;;;4.88;3.72;;;;;;;;;;10409438;28;20020;-48
2023/01/27 10:08:01;;;;;;;4.68;3.72;;;;;;;;;;10396506;28;20056;-51
2023/01/27 10:13:48;;;;;;;5.07;3.45;;;;;;;;;;10407560;28;20079;-53
2023/01/27 10:18:54;;;;;;;6.97;3.80;;;;;;;;;;10408174;28;20388;-53
2023/01/27 10:24:12;;;;;;;4.57;3.30;;;;;;;;;;10408032;28;20022;-55
2023/01/27 10:29:24;;;;;;;7.47;3.47;;;;;;;;;;10407845;28;20029;-52
2023/01/27 10:34:49;;;;;;;8.68;3.53;;;;;;;;;;10401568;23;20013;-50
2023/01/27 10:40:15;;;;;;;5.03;3.35;;;;;;;;;;10368914;28;20049;-59
2023/01/27 10:45:28;;;;;;;4.90;3.45;;;;;;;;;;10378690;28;20378;-60
2023/01/27 10:50:42;;;;;;;3.72;2.90;;;;;;;;;;10354041;28;20218;-59
2023/01/27 10:56:03;;;;;;;5.38;3.65;;;;;;;;;;10330918;28;20556;-60
2023/01/27 11:01:06;;;;;;;7.57;3.35;;;;;;;;;;10354808;28;20029;-57
2023/01/27 11:06:18;;;;;;;4.47;3.25;;;;;;;;;;10362167;28;20041;-61
2023/01/27 11:16:50;;;;;;;3.38;2.97;;;;;;;;;;10361374;28;20026;-61
2023/01/27 11:21:52;;;;;;;4.20;2.97;;;;;;;;;;10361197;28;20030;-56
2023/01/27 11:27:04;;;;;;;3.35;3.05;;;;;;;;;;10344436;28;20042;-59
2023/01/27 11:32:49;;;;;;;5.18;3.40;;;;;;;;;;10347987;28;20084;-61
2023/01/27 11:37:51;;;;;;;4.38;3.33;;;;;;;;;;10344159;28;20116;-61
2023/01/27 11:42:53;;;;;;;4.47;3.35;;;;;;;;;;10362046;28;20080;-61
2023/01/27 11:47:59;;;;;;;4.00;3.08;;;;;;;;;;10361240;28;20064;-60
2023/01/27 11:53:38;;;;;;;4.47;2.92;;;;;;;;;;10330320;28;20406;-61
2023/01/27 11:58:49;;;;;;;4.57;3.40;;;;;;;;;;10318235;28;20043;-58
2023/01/27 12:04:11;;;;;;;3.72;2.95;;;;;;;;;;10354799;28;20478;-60
2023/01/27 12:09:37;;;;;;;3.50;3.15;;;;;;;;;;10325061;28;20422;-61
2023/01/27 12:14:46;;;;;;;3.72;2.75;;;;;;;;;;10346347;28;20024;-60
2023/01/27 12:19:46;;;;;;;7.27;3.00;;;;;;;;;;10364557;28;20019;-61
2023/01/27 12:24:51;;;;;;;3.13;2.83;;;;;;;;;;10354479;28;20481;-61
2023/01/27 12:30:00;;;;;;;3.85;2.85;;;;;;;;;;10366610;28;20389;-59
2023/01/27 12:35:01;;;;;;;4.03;3.17;;;;;;;;;;10366263;28;20034;-60
2023/01/27 12:40:15;;;;;;;5.18;3.08;;;;;;;;;;10366935;28;20099;-61
2023/01/27 12:45:36;;;;;;;4.78;2.85;;;;;;;;;;10341571;28;20092;-62
2023/01/27 12:50:49;;;;;;;3.45;2.78;;;;;;;;;;10343113;28;20038;-62
2023/01/27 12:55:57;;;;;;;5.07;2.65;;;;;;;;;;10340061;28;20286;-60
2023/01/27 13:01:03;;;;;;;4.22;2.97;;;;;;;;;;10349913;28;20026;-61
2023/01/27 13:06:04;;;;;;;3.50;2.65;;;;;;;;;;10345292;28;20067;-61
2023/01/27 13:11:04;;;;;;;3.28;2.80;;;;;;;;;;10347120;28;20124;-57
2023/01/27 13:16:26;;;;;;;3.72;2.90;;;;;;;;;;10353596;28;20034;-60
2023/01/27 13:21:37;;;;;;;3.65;2.55;;;;;;;;;;10344820;28;20108;-57
2023/01/27 13:26:40;;;;;;;2.92;2.45;;;;;;;;;;10342742;28;20056;-58
2023/01/27 13:32:13;;;;;;;4.50;2.80;;;;;;;;;;10335915;28;20034;-60
2023/01/27 13:37:42;;;;;;;3.40;3.00;;;;;;;;;;10342184;28;20042;-57
2023/01/27 13:42:53;;;;;;;2.70;2.50;;;;;;;;;;10341951;28;20041;-58
2023/01/27 13:48:09;;;;;;;5.80;2.95;;;;;;;;;;10341617;28;20076;-61
2023/01/27 13:53:13;;;;;;;2.75;2.30;;;;;;;;;;10347267;28;20034;-61
2023/01/27 13:59:16;;;;;;;4.63;2.80;;;;;;;;;;10334643;28;20552;-60
2023/01/27 14:04:45;;;;;;;2.90;2.60;;;;;;;;;;10339200;28;20054;-59
2023/01/27 14:10:01;;;;;;;2.50;2.30;;;;;;;;;;10337183;28;20062;-58
2023/01/27 14:15:28;;;;;;;2.75;2.53;;;;;;;;;;10344556;28;20026;-59
2023/01/27 14:20:59;;;;;;;4.35;2.25;;;;;;;;;;10323597;28;20065;-59
2023/01/27 14:27:08;;;;;;;3.03;2.33;;;;;;;;;;10304972;28;20057;-60
2023/01/27 14:32:43;;;;;;;;;;;;;;;;;;10201584;29;20311;-49
2023/01/27 14:38:13;;;;;;;7.07;2.53;;;;;;;;;;10178274;29;19918;-50
2023/01/27 14:43:19;;;;;;;3.75;2.50;;;;;;;;;;10207730;29;20048;-53
2023/01/27 14:48:19;;;;;;;5.28;2.80;;;;;;;;;;10201033;29;20443;-56
2023/01/27 14:53:54;;;;;;;2.90;2.33;;;;;;;;;;10234816;29;20047;-50
2023/01/27 14:59:27;;;;;;;3.65;2.17;;;;;;;;;;10218298;29;20507;-47
2023/01/27 15:04:52;;;;;;;3.08;2.22;;;;;;;;;;10257928;28;20045;-46
2023/01/27 15:10:01;;;;;;;2.22;1.88;;;;;;;;;;10321472;28;20026;-46
2023/01/27 15:15:31;;;;;;;2.20;1.98;;;;;;;;;;10334640;28;20026;-46
2023/01/27 15:20:52;;;;;;;4.20;2.70;;;;;;;;;;10353693;28;20033;-47
2023/01/27 15:25:59;;;;;;;2.50;2.30;;;;;;;;;;10318631;28;20018;-46
2023/01/27 15:31:18;;;;;;;2.83;2.30;;;;;;;;;;10321885;28;20031;-47
2023/01/27 15:36:32;;;;;;;2.88;2.13;;;;;;;;;;10327380;28;20100;-47
2023/01/27 15:41:35;;;;;;;2.20;2.00;;;;;;;;;;10330780;28;20222;-47
2023/01/27 15:46:40;;;;;;;3.22;2.25;;;;;;;;;;10330933;28;20030;-49
2023/01/27 15:51:41;;;;;;;3.10;2.35;;;;;;;;;;10317826;28;20114;-47
2023/01/27 15:56:54;;;;;;;5.38;2.55;;;;;;;;;;10335980;28;20486;-47
2023/01/27 16:02:29;;;;;;;3.22;2.40;;;;;;;;;;10338700;28;20624;-47
2023/01/27 16:07:36;;;;;;;2.92;2.60;;;;;;;;;;10316968;28;20042;-46
2023/01/27 16:12:46;;;;;;;4.93;2.63;;;;;;;;;;10334010;28;20033;-48
2023/01/27 16:18:05;;;;;;;4.55;2.20;;;;;;;;;;10328755;28;20379;-48
2023/01/27 16:23:11;;;;;;;7.13;2.10;;;;;;;;;;10325401;28;20092;-46
2023/01/27 16:28:27;;;;;;;3.38;2.47;;;;;;;;;;10333067;28;20074;-47
2023/01/27 16:33:42;;;;;;;4.05;2.05;;;;;;;;;;10331057;28;20022;-48
2023/01/27 16:38:44;;;;;;;2.67;2.20;;;;;;;;;;10324735;28;20054;-48
2023/01/27 16:43:59;;;;;;;2.92;2.20;;;;;;;;;;10331721;28;20089;-46
2023/01/27 16:49:09;;;;;;;4.00;2.28;;;;;;;;;;10329641;28;20316;-48
2023/01/27 16:54:43;;;;;;;2.13;1.92;;;;;;;;;;10332607;28;20030;-46
2023/01/27 16:59:46;;;;;;;2.90;2.38;;;;;;;;;;10329854;28;20050;-48
2023/01/27 17:04:59;;;;;;;2.38;2.15;;;;;;;;;;10354967;28;20080;-47
2023/01/27 17:10:12;;;;;;;2.47;2.08;;;;;;;;;;10350062;28;20030;-47
2023/01/27 17:15:23;;;;;;;3.50;2.25;;;;;;;;;;10348506;28;20037;-46
2023/01/27 17:20:33;;;;;;;2.92;2.40;;;;;;;;;;10364886;28;20109;-48
2023/01/27 17:25:38;;;;;;;3.70;2.40;;;;;;;;;;10336242;28;20385;-47
2023/01/27 17:30:41;;;;;;;3.50;2.60;;;;;;;;;;10335180;28;20022;-49
2023/01/27 17:35:42;;;;;;;4.68;2.58;;;;;;;;;;10354626;28;20655;-47
2023/01/27 17:40:46;;;;;;;3.90;3.00;;;;;;;;;;10327206;28;20253;-47
2023/01/27 17:45:51;;;;;;;4.30;2.70;;;;;;;;;;10333178;28;20049;-44
2023/01/27 17:50:51;;;;;;;11.82;2.85;;;;;;;;;;10315803;28;20046;-49
2023/01/27 17:55:52;;;;;;;8.52;3.67;;;;;;;;;;10330988;28;20118;-46
2023/01/27 18:00:54;;;;;;;9.52;3.22;;;;;;;;;;10328817;28;20034;-46
2023/01/27 18:05:55;;;;;;;5.25;2.95;;;;;;;;;;10301555;28;20046;-46
2023/01/27 18:11:38;;;;;;;7.32;2.90;;;;;;;;;;10307189;28;20034;-47
2023/01/27 18:16:39;;;;;;;5.07;3.00;;;;;;;;;;10305266;28;20486;-46
2023/01/27 18:21:39;;;;;;;7.80;3.22;;;;;;;;;;10324522;28;20065;-46
2023/01/27 18:26:42;;;;;;;6.22;3.95;;;;;;;;;;10324112;28;20077;-47
2023/01/27 18:32:06;;;;;;;10.68;4.07;;;;;;;;;;10309785;28;20023;-47
2023/01/27 18:37:34;;;;;;;13.55;4.07;;;;;;;;;;10325357;28;20046;-47
2023/01/27 18:42:35;;;;;;;6.65;3.85;;;;;;;;;;10323086;28;20104;-50
2023/01/27 18:47:36;;;;;;;22.02;4.88;;;;;;;;;;10324612;28;20077;-48
2023/01/27 18:52:37;;;;;;;7.55;3.97;;;;;;;;;;10326138;28;20046;-56
2023/01/27 18:57:38;;;;;;;8.98;3.42;;;;;;;;;;10326006;28;20398;-49
2023/01/27 19:02:38;;;;;;;4.88;3.53;;;;;;;;;;10324239;28;20046;-52
2023/01/27 19:07:39;;;;;;;11.48;4.22;;;;;;;;;;10321550;28;20054;-47
2023/01/27 19:12:39;;;;;;;6.22;3.70;;;;;;;;;;10325838;28;20035;-52
2023/01/27 19:17:44;;;;;;;8.35;4.20;;;;;;;;;;10326559;28;20026;-51
2023/01/27 19:22:46;;;;;;;5.88;4.05;;;;;;;;;;10325986;28;20408;-48
2023/01/27 19:27:51;;;;;;;10.57;4.25;;;;;;;;;;10326382;28;20478;-50
2023/01/27 19:32:54;;;;;;;11.93;4.38;;;;;;;;;;10308828;28;20030;-46
2023/01/27 19:37:55;;;;;;;6.82;4.18;;;;;;;;;;10325355;28;20626;-47
2023/01/27 19:42:56;;;;;;;5.97;3.95;;;;;;;;;;10325137;28;20096;-46
2023/01/27 19:47:58;;;;;;;6.95;4.22;;;;;;;;;;10325486;28;20037;-46
2023/01/27 19:52:59;;;;;;;7.07;4.88;;;;;;;;;;10325129;28;20030;-46
2023/01/27 19:58:00;;;;;;;9.07;4.18;;;;;;;;;;10331135;28;20034;-46
2023/01/27 20:03:01;;;;;;;5.90;4.13;;;;;;;;;;10339675;28;20038;-46
2023/01/27 20:08:02;;;;;;;11.50;4.28;;;;;;;;;;10328893;28;20032;-48
2023/01/27 20:13:05;;;;;;;18.98;5.43;;;;;;;;;;10327595;28;20038;-47
2023/01/27 20:18:16;;;;;;;13.68;5.22;;;;;;;;;;10321501;28;20034;-47
2023/01/27 20:23:17;;;;;;;16.90;5.43;;;;;;;;;;10311714;28;20508;-51
2023/01/27 20:28:17;;;;;;;13.85;6.80;;;;;;;;;;10330369;28;20114;-47
2023/01/27 20:33:18;;;;;;;12.02;5.28;;;;;;;;;;10330813;28;20038;-47
2023/01/27 20:38:18;;;;;;;9.90;5.85;;;;;;;;;;10331484;28;20038;-47
2023/01/27 20:43:19;;;;;;;12.50;6.43;;;;;;;;;;10332673;28;20026;-46
2023/01/27 20:48:20;;;;;;;13.27;7.15;;;;;;;;;;10331233;28;20018;-46
2023/01/27 20:53:20;;;;;;;9.82;5.88;;;;;;;;;;10331393;28;20045;-47
2023/01/27 20:58:21;;;;;;;12.35;6.50;;;;;;;;;;10339834;28;20092;-45
2023/01/27 21:03:21;;;;;;;35.40;7.63;;;;;;;;;;10328376;28;20030;-46
2023/01/27 21:08:22;;;;;;;13.10;6.50;;;;;;;;;;10352422;28;20030;-47
2023/01/27 21:13:22;;;;;;;10.43;6.07;;;;;;;;;;10366423;28;20060;-48
2023/01/27 21:18:24;;;;;;;10.35;7.13;;;;;;;;;;10367077;28;20454;-47
2023/01/27 21:23:30;;;;;;;15.45;7.47;;;;;;;;;;10346857;28;20034;-49
2023/01/27 21:28:32;;;;;;;13.25;6.43;;;;;;;;;;10341749;28;20072;-50
2023/01/27 21:33:35;;;;;;;12.65;6.95;;;;;;;;;;10346455;28;20057;-49
2023/01/27 21:38:36;;;;;;;11.55;6.93;;;;;;;;;;10352659;28;20037;-50
2023/01/27 21:48:56;;;;;;;12.32;5.95;;;;;;;;;;10353863;28;20030;-49
2023/01/27 21:53:57;;;;;;;12.93;6.05;;;;;;;;;;10359740;28;20473;-46
2023/01/27 21:58:58;;;;;;;11.70;6.85;;;;;;;;;;10358736;28;20053;-50
2023/01/27 22:03:59;;;;;;;10.82;6.57;;;;;;;;;;10351911;28;20055;-50
2023/01/27 22:09:00;;;;;;;12.13;6.82;;;;;;;;;;10365811;28;20026;-47
2023/01/27 22:14:00;;;;;;;12.20;6.85;;;;;;;;;;10331836;28;20111;-47
2023/01/27 22:19:01;;;;;;;16.95;7.03;;;;;;;;;;10322096;28;20037;-46
2023/01/27 22:24:01;;;;;;;14.90;7.05;;;;;;;;;;10356773;28;20034;-47
2023/01/27 22:29:02;;;;;;;9.65;6.40;;;;;;;;;;10351591;28;20032;-46
2023/01/27 22:34:03;;;;;;;9.63;6.47;;;;;;;;;;10341395;28;20433;-49
2023/01/27 22:39:03;;;;;;;12.73;6.95;;;;;;;;;;10347640;28;20049;-47
2023/01/27 22:44:04;;;;;;;13.35;6.60;;;;;;;;;;10338667;28;20033;-47
2023/01/27 22:49:05;;;;;;;9.60;6.30;;;;;;;;;;10349987;28;20030;-48
2023/01/27 22:54:08;;;;;;;8.88;6.13;;;;;;;;;;10363369;28;20489;-47
2023/01/27 22:59:12;;;;;;;9.63;6.63;;;;;;;;;;10342781;28;20021;-47
2023/01/27 23:04:13;;;;;;;10.25;6.65;;;;;;;;;;10360669;28;20461;-47
2023/01/27 23:09:13;;;;;;;10.00;6.80;;;;;;;;;;10362972;28;20079;-50
2023/01/27 23:14:14;;;;;;;12.52;6.32;;;;;;;;;;10361990;28;20033;-50
2023/01/27 23:19:14;;;;;;;14.18;6.90;;;;;;;;;;10355189;28;20081;-48
2023/01/27 23:24:15;;;;;;;10.13;7.20;;;;;;;;;;10320076;28;20111;-49
2023/01/27 23:29:16;;;;;;;9.75;6.22;;;;;;;;;;10362947;28;20249;-47
2023/01/27 23:34:16;;;;;;;8.93;6.47;;;;;;;;;;10351095;28;20061;-47
2023/01/27 23:39:17;;;;;;;9.32;6.38;;;;;;;;;;10351852;28;20057;-50
2023/01/27 23:44:18;;;;;;;10.80;6.80;;;;;;;;;;10340101;28;20038;-48
2023/01/27 23:49:18;;;;;;;14.55;6.80;;;;;;;;;;10346729;28;20026;-49
2023/01/27 23:54:19;;;;;;;11.13;6.57;;;;;;;;;;10349494;28;20030;-46
2023/01/27 23:59:19;;;;;;;11.77;7.13;;;;;;;;;;10351748;28;20483;-48
